sensor_id;sensor_type;location;lat;lon;timestamp;pressure;altitude;pressure_sealevel;temperature;humidity
16544;BME280;8384;47.996;7.786;2023-04-07T00:02:24;98796.78;;;8.70;56.98
16544;BME280;8384;47.996;7.786;2023-04-07T00:04:49;98795.53;;;8.78;57.28
16544;BME280;8384;47.996;7.786;2023-04-07T00:07:15;98793.97;;;8.65;57.01
16544;BME280;8384;47.996;7.786;2023-04-07T00:09:40;98796.69;;;8.65;57.15
16544;BME280;8384;47.996;7.786;2023-04-07T00:12:05;98791.47;;;8.63;57.53
16544;BME280;8384;47.996;7.786;2023-04-07T00:14:31;98797.59;;;8.88;56.71
16544;BME280;8384;47.996;7.786;2023-04-07T00:16:56;98781.75;;;8.84;57.06
16544;BME280;8384;47.996;7.786;2023-04-07T00:19:21;98802.56;;;8.57;57.81
16544;BME280;8384;47.996;7.786;2023-04-07T00:21:46;98779.16;;;8.44;57.97
16544;BME280;8384;47.996;7.786;2023-04-07T00:24:11;98793.56;;;8.56;58.38
16544;BME280;8384;47.996;7.786;2023-04-07T00:26:37;98794.06;;;8.53;58.05
16544;BME280;8384;47.996;7.786;2023-04-07T00:29:02;98766.31;;;8.56;57.45
16544;BME280;8384;47.996;7.786;2023-04-07T00:31:28;98760.88;;;8.56;57.28
16544;BME280;8384;47.996;7.786;2023-04-07T00:33:53;98748.47;;;8.48;57.69
16544;BME280;8384;47.996;7.786;2023-04-07T00:36:19;98785.31;;;8.68;57.34
16544;BME280;8384;47.996;7.786;2023-04-07T00:38:45;98776.06;;;8.69;57.65
16544;BME280;8384;47.996;7.786;2023-04-07T00:41:10;98774.66;;;8.66;57.67
16544;BME280;8384;47.996;7.786;2023-04-07T00:43:35;98767.94;;;8.74;57.32
16544;BME280;8384;47.996;7.786;2023-04-07T00:46:01;98740.63;;;8.69;57.04
16544;BME280;8384;47.996;7.786;2023-04-07T00:48:26;98757.94;;;8.97;56.38
16544;BME280;8384;47.996;7.786;2023-04-07T00:50:51;98757.38;;;8.95;56.65
16544;BME280;8384;47.996;7.786;2023-04-07T00:53:17;98755.22;;;8.97;56.05
16544;BME280;8384;47.996;7.786;2023-04-07T00:55:42;98754.09;;;8.76;56.53
16544;BME280;8384;47.996;7.786;2023-04-07T00:58:07;98730.63;;;8.75;56.71
16544;BME280;8384;47.996;7.786;2023-04-07T01:00:41;98748.94;;;8.79;56.86
16544;BME280;8384;47.996;7.786;2023-04-07T01:03:17;98745.34;;;8.74;56.51
16544;BME280;8384;47.996;7.786;2023-04-07T01:05:58;98757.59;;;8.93;56.50
16544;BME280;8384;47.996;7.786;2023-04-07T01:08:48;98744.06;;;8.98;56.32
16544;BME280;8384;47.996;7.786;2023-04-07T01:11:30;98737.84;;;9.03;56.35
16544;BME280;8384;47.996;7.786;2023-04-07T01:13:57;98737.94;;;8.91;56.86
16544;BME280;8384;47.996;7.786;2023-04-07T01:16:34;98743.59;;;8.67;57.68
16544;BME280;8384;47.996;7.786;2023-04-07T01:21:47;98733.28;;;8.69;57.23
16544;BME280;8384;47.996;7.786;2023-04-07T01:24:45;98733.28;;;8.69;56.83
16544;BME280;8384;47.996;7.786;2023-04-07T01:27:37;98735.81;;;8.42;58.62
16544;BME280;8384;47.996;7.786;2023-04-07T01:30:10;98730.78;;;8.34;59.24
16544;BME280;8384;47.996;7.786;2023-04-07T01:32:36;98726.44;;;8.50;58.81
16544;BME280;8384;47.996;7.786;2023-04-07T01:35:04;98714.56;;;8.56;57.34
16544;BME280;8384;47.996;7.786;2023-04-07T01:37:34;98720.88;;;8.79;57.32
16544;BME280;8384;47.996;7.786;2023-04-07T01:40:01;98727.03;;;8.91;56.75
16544;BME280;8384;47.996;7.786;2023-04-07T01:42:27;98717.34;;;8.61;57.92
16544;BME280;8384;47.996;7.786;2023-04-07T01:44:52;98710.22;;;8.77;57.25
16544;BME280;8384;47.996;7.786;2023-04-07T01:47:18;98696.34;;;8.79;56.75
16544;BME280;8384;47.996;7.786;2023-04-07T01:49:44;98707.56;;;8.82;57.20
16544;BME280;8384;47.996;7.786;2023-04-07T01:52:11;98688.53;;;8.65;56.98
16544;BME280;8384;47.996;7.786;2023-04-07T01:54:37;98691.78;;;8.84;56.98
16544;BME280;8384;47.996;7.786;2023-04-07T01:57:03;98692.19;;;8.93;56.87
16544;BME280;8384;47.996;7.786;2023-04-07T01:59:29;98652.88;;;8.67;56.64
16544;BME280;8384;47.996;7.786;2023-04-07T02:01:55;98650.06;;;8.62;57.22
16544;BME280;8384;47.996;7.786;2023-04-07T02:04:36;98663.44;;;8.46;57.43
16544;BME280;8384;47.996;7.786;2023-04-07T02:07:15;98675.91;;;8.59;57.24
16544;BME280;8384;47.996;7.786;2023-04-07T02:09:43;98651.69;;;8.46;56.81
16544;BME280;8384;47.996;7.786;2023-04-07T02:12:12;98666.16;;;8.63;57.10
16544;BME280;8384;47.996;7.786;2023-04-07T02:14:38;98613.28;;;8.25;57.16
16544;BME280;8384;47.996;7.786;2023-04-07T02:17:04;98672.91;;;8.78;57.04
16544;BME280;8384;47.996;7.786;2023-04-07T02:19:31;98666.00;;;8.92;56.97
16544;BME280;8384;47.996;7.786;2023-04-07T02:21:59;98639.31;;;8.72;56.78
16544;BME280;8384;47.996;7.786;2023-04-07T02:24:25;98639.63;;;8.76;57.24
16544;BME280;8384;47.996;7.786;2023-04-07T02:26:50;98644.56;;;8.79;57.70
16544;BME280;8384;47.996;7.786;2023-04-07T02:29:15;98617.56;;;8.55;57.94
16544;BME280;8384;47.996;7.786;2023-04-07T02:31:41;98641.22;;;8.54;58.78
16544;BME280;8384;47.996;7.786;2023-04-07T02:34:06;98647.59;;;8.60;58.06
16544;BME280;8384;47.996;7.786;2023-04-07T02:36:31;98643.72;;;8.56;58.70
16544;BME280;8384;47.996;7.786;2023-04-07T02:38:57;98643.13;;;8.71;57.61
16544;BME280;8384;47.996;7.786;2023-04-07T02:41:22;98640.09;;;8.50;58.83
16544;BME280;8384;47.996;7.786;2023-04-07T02:43:47;98644.72;;;8.50;58.47
16544;BME280;8384;47.996;7.786;2023-04-07T02:46:12;98645.59;;;8.38;58.84
16544;BME280;8384;47.996;7.786;2023-04-07T02:48:38;98642.25;;;8.31;59.63
16544;BME280;8384;47.996;7.786;2023-04-07T02:51:03;98637.19;;;8.40;58.96
16544;BME280;8384;47.996;7.786;2023-04-07T02:53:28;98611.81;;;8.17;59.04
16544;BME280;8384;47.996;7.786;2023-04-07T02:55:54;98638.75;;;8.36;59.58
16544;BME280;8384;47.996;7.786;2023-04-07T02:58:19;98645.13;;;8.24;59.75
16544;BME280;8384;47.996;7.786;2023-04-07T03:00:47;98626.09;;;7.90;60.11
16544;BME280;8384;47.996;7.786;2023-04-07T03:03:12;98642.81;;;7.99;60.72
16544;BME280;8384;47.996;7.786;2023-04-07T03:05:37;98638.78;;;8.02;60.62
16544;BME280;8384;47.996;7.786;2023-04-07T03:08:03;98634.06;;;7.97;61.17
16544;BME280;8384;47.996;7.786;2023-04-07T03:10:28;98624.66;;;7.88;60.88
16544;BME280;8384;47.996;7.786;2023-04-07T03:12:54;98637.53;;;7.75;62.54
16544;BME280;8384;47.996;7.786;2023-04-07T03:15:19;98616.41;;;7.65;62.02
16544;BME280;8384;47.996;7.786;2023-04-07T03:17:45;98637.75;;;7.28;64.29
16544;BME280;8384;47.996;7.786;2023-04-07T03:20:10;98637.88;;;7.50;63.26
16544;BME280;8384;47.996;7.786;2023-04-07T03:22:36;98632.97;;;7.35;64.86
16544;BME280;8384;47.996;7.786;2023-04-07T03:25:01;98633.56;;;7.66;64.55
16544;BME280;8384;47.996;7.786;2023-04-07T03:27:26;98626.56;;;7.70;64.00
16544;BME280;8384;47.996;7.786;2023-04-07T03:29:52;98595.53;;;7.54;63.26
16544;BME280;8384;47.996;7.786;2023-04-07T03:32:17;98616.75;;;7.69;63.39
16544;BME280;8384;47.996;7.786;2023-04-07T03:34:42;98613.50;;;7.26;65.22
16544;BME280;8384;47.996;7.786;2023-04-07T03:37:08;98600.06;;;7.19;65.19
16544;BME280;8384;47.996;7.786;2023-04-07T03:39:33;98605.78;;;7.35;64.45
16544;BME280;8384;47.996;7.786;2023-04-07T03:42:01;98610.63;;;7.62;64.16
16544;BME280;8384;47.996;7.786;2023-04-07T03:44:27;98608.47;;;7.64;64.77
16544;BME280;8384;47.996;7.786;2023-04-07T03:46:52;98575.44;;;7.72;64.77
16544;BME280;8384;47.996;7.786;2023-04-07T03:49:17;98609.22;;;8.10;63.26
16544;BME280;8384;47.996;7.786;2023-04-07T03:51:43;98602.22;;;7.98;63.30
16544;BME280;8384;47.996;7.786;2023-04-07T03:54:08;98604.31;;;7.90;64.44
16544;BME280;8384;47.996;7.786;2023-04-07T03:56:34;98577.25;;;7.84;64.25
16544;BME280;8384;47.996;7.786;2023-04-07T03:58:59;98596.38;;;7.89;64.58
16544;BME280;8384;47.996;7.786;2023-04-07T04:01:25;98590.84;;;7.84;64.47
16544;BME280;8384;47.996;7.786;2023-04-07T04:03:50;98595.78;;;7.87;64.76
16544;BME280;8384;47.996;7.786;2023-04-07T04:06:15;98575.44;;;7.89;64.90
16544;BME280;8384;47.996;7.786;2023-04-07T04:08:41;98601.50;;;8.02;65.33
16544;BME280;8384;47.996;7.786;2023-04-07T04:11:06;98559.44;;;7.59;66.50
16544;BME280;8384;47.996;7.786;2023-04-07T04:13:31;98591.25;;;7.58;67.22
16544;BME280;8384;47.996;7.786;2023-04-07T04:15:56;98592.31;;;7.57;67.49
16544;BME280;8384;47.996;7.786;2023-04-07T04:18:22;98572.84;;;7.31;68.71
16544;BME280;8384;47.996;7.786;2023-04-07T04:20:47;98570.06;;;7.14;69.80
16544;BME280;8384;47.996;7.786;2023-04-07T04:23:13;98589.38;;;7.30;70.04
16544;BME280;8384;47.996;7.786;2023-04-07T04:25:38;98558.66;;;7.29;69.03
16544;BME280;8384;47.996;7.786;2023-04-07T04:28:04;98576.81;;;7.58;68.99
16544;BME280;8384;47.996;7.786;2023-04-07T04:30:30;98578.66;;;7.69;67.39
16544;BME280;8384;47.996;7.786;2023-04-07T04:32:55;98569.09;;;7.67;66.74
16544;BME280;8384;47.996;7.786;2023-04-07T04:35:21;98571.78;;;7.84;65.99
16544;BME280;8384;47.996;7.786;2023-04-07T04:37:46;98553.69;;;7.72;65.04
16544;BME280;8384;47.996;7.786;2023-04-07T04:40:12;98579.63;;;7.97;64.10
16544;BME280;8384;47.996;7.786;2023-04-07T04:42:38;98574.94;;;7.58;66.58
16544;BME280;8384;47.996;7.786;2023-04-07T04:45:04;98533.16;;;7.01;68.68
16544;BME280;8384;47.996;7.786;2023-04-07T04:47:29;98578.22;;;7.43;68.11
16544;BME280;8384;47.996;7.786;2023-04-07T04:49:55;98563.13;;;7.35;67.26
16544;BME280;8384;47.996;7.786;2023-04-07T04:52:20;98562.59;;;7.68;66.36
16544;BME280;8384;47.996;7.786;2023-04-07T04:54:45;98522.91;;;7.38;65.42
16544;BME280;8384;47.996;7.786;2023-04-07T04:57:11;98572.78;;;7.60;66.22
16544;BME280;8384;47.996;7.786;2023-04-07T04:59:36;98556.59;;;7.19;67.74
16544;BME280;8384;47.996;7.786;2023-04-07T05:02:01;98580.06;;;7.55;66.23
16544;BME280;8384;47.996;7.786;2023-04-07T05:04:27;98577.31;;;7.72;65.45
16544;BME280;8384;47.996;7.786;2023-04-07T05:06:52;98548.22;;;7.55;65.68
16544;BME280;8384;47.996;7.786;2023-04-07T05:09:17;98568.75;;;7.63;65.03
16544;BME280;8384;47.996;7.786;2023-04-07T05:11:42;98578.47;;;7.76;65.13
16544;BME280;8384;47.996;7.786;2023-04-07T05:14:08;98585.47;;;7.72;65.63
16544;BME280;8384;47.996;7.786;2023-04-07T05:16:34;98585.50;;;7.89;65.45
16544;BME280;8384;47.996;7.786;2023-04-07T05:19:00;98582.84;;;8.11;65.35
16544;BME280;8384;47.996;7.786;2023-04-07T05:21:25;98578.97;;;7.90;66.09
16544;BME280;8384;47.996;7.786;2023-04-07T05:23:51;98581.63;;;7.68;66.89
16544;BME280;8384;47.996;7.786;2023-04-07T05:26:16;98584.41;;;7.39;69.32
16544;BME280;8384;47.996;7.786;2023-04-07T05:28:41;98584.09;;;7.23;71.62
16544;BME280;8384;47.996;7.786;2023-04-07T05:31:07;98578.41;;;7.54;69.86
16544;BME280;8384;47.996;7.786;2023-04-07T05:33:32;98567.78;;;7.23;70.53
16544;BME280;8384;47.996;7.786;2023-04-07T05:35:58;98589.66;;;7.45;69.46
16544;BME280;8384;47.996;7.786;2023-04-07T05:38:23;98588.03;;;7.15;71.67
16544;BME280;8384;47.996;7.786;2023-04-07T05:40:48;98545.63;;;7.14;71.18
16544;BME280;8384;47.996;7.786;2023-04-07T05:43:14;98595.03;;;7.57;69.96
16544;BME280;8384;47.996;7.786;2023-04-07T05:45:39;98595.91;;;7.46;70.50
16544;BME280;8384;47.996;7.786;2023-04-07T05:48:05;98596.78;;;7.17;73.23
16544;BME280;8384;47.996;7.786;2023-04-07T05:50:30;98597.03;;;7.33;70.84
16544;BME280;8384;47.996;7.786;2023-04-07T05:52:55;98577.00;;;7.22;71.71
16544;BME280;8384;47.996;7.786;2023-04-07T05:55:20;98601.09;;;7.30;71.56
16544;BME280;8384;47.996;7.786;2023-04-07T05:57:46;98596.88;;;7.23;72.47
16544;BME280;8384;47.996;7.786;2023-04-07T06:00:12;98602.22;;;7.17;73.32
16544;BME280;8384;47.996;7.786;2023-04-07T06:02:37;98603.63;;;7.66;71.83
16544;BME280;8384;47.996;7.786;2023-04-07T06:05:04;98602.53;;;7.21;73.15
16544;BME280;8384;47.996;7.786;2023-04-07T06:07:29;98605.19;;;6.75;79.29
16544;BME280;8384;47.996;7.786;2023-04-07T06:09:55;98616.03;;;6.87;76.48
16544;BME280;8384;47.996;7.786;2023-04-07T06:12:20;98607.59;;;6.48;75.89
16544;BME280;8384;47.996;7.786;2023-04-07T06:14:51;98609.56;;;6.52;76.14
16544;BME280;8384;47.996;7.786;2023-04-07T06:17:16;98612.31;;;6.40;77.18
16544;BME280;8384;47.996;7.786;2023-04-07T06:19:42;98618.66;;;6.70;76.63
16544;BME280;8384;47.996;7.786;2023-04-07T06:22:07;98564.59;;;6.56;75.29
16544;BME280;8384;47.996;7.786;2023-04-07T06:24:32;98570.66;;;6.87;74.06
16544;BME280;8384;47.996;7.786;2023-04-07T06:26:59;98613.38;;;7.33;73.56
16544;BME280;8384;47.996;7.786;2023-04-07T06:29:25;98611.16;;;7.47;73.28
16544;BME280;8384;47.996;7.786;2023-04-07T06:31:50;98589.84;;;7.39;73.65
16544;BME280;8384;47.996;7.786;2023-04-07T06:34:16;98594.47;;;7.55;72.41
16544;BME280;8384;47.996;7.786;2023-04-07T06:36:41;98622.69;;;7.83;70.99
16544;BME280;8384;47.996;7.786;2023-04-07T06:39:06;98634.38;;;7.67;71.62
16544;BME280;8384;47.996;7.786;2023-04-07T06:41:32;98602.63;;;7.55;72.23
16544;BME280;8384;47.996;7.786;2023-04-07T06:43:57;98610.47;;;7.69;71.16
16544;BME280;8384;47.996;7.786;2023-04-07T06:46:22;98590.22;;;7.76;68.95
16544;BME280;8384;47.996;7.786;2023-04-07T06:48:50;98618.81;;;7.96;68.61
16544;BME280;8384;47.996;7.786;2023-04-07T06:51:16;98620.53;;;7.85;68.16
16544;BME280;8384;47.996;7.786;2023-04-07T06:53:42;98632.69;;;7.94;68.05
16544;BME280;8384;47.996;7.786;2023-04-07T06:56:09;98637.69;;;7.86;68.86
16544;BME280;8384;47.996;7.786;2023-04-07T06:58:36;98644.47;;;8.00;67.63
16544;BME280;8384;47.996;7.786;2023-04-07T07:01:02;98634.91;;;7.80;69.21
16544;BME280;8384;47.996;7.786;2023-04-07T07:03:28;98643.69;;;7.71;67.79
16544;BME280;8384;47.996;7.786;2023-04-07T07:05:55;98645.41;;;7.60;69.37
16544;BME280;8384;47.996;7.786;2023-04-07T07:08:21;98648.44;;;7.92;68.26
16544;BME280;8384;47.996;7.786;2023-04-07T07:10:47;98640.59;;;8.13;67.70
16544;BME280;8384;47.996;7.786;2023-04-07T07:13:12;98636.03;;;7.68;67.48
16544;BME280;8384;47.996;7.786;2023-04-07T07:15:37;98660.78;;;7.83;67.88
16544;BME280;8384;47.996;7.786;2023-04-07T07:18:03;98659.47;;;8.20;67.19
16544;BME280;8384;47.996;7.786;2023-04-07T07:20:28;98656.00;;;8.24;66.55
16544;BME280;8384;47.996;7.786;2023-04-07T07:22:53;98657.81;;;8.36;66.86
16544;BME280;8384;47.996;7.786;2023-04-07T07:25:18;98663.09;;;8.25;66.93
16544;BME280;8384;47.996;7.786;2023-04-07T07:27:44;98667.94;;;8.75;65.32
16544;BME280;8384;47.996;7.786;2023-04-07T07:30:10;98661.94;;;8.55;65.71
16544;BME280;8384;47.996;7.786;2023-04-07T07:32:35;98647.63;;;8.82;64.75
16544;BME280;8384;47.996;7.786;2023-04-07T07:35:00;98659.56;;;8.25;66.59
16544;BME280;8384;47.996;7.786;2023-04-07T07:37:25;98662.88;;;8.44;67.52
16544;BME280;8384;47.996;7.786;2023-04-07T07:39:52;98654.78;;;8.32;67.29
16544;BME280;8384;47.996;7.786;2023-04-07T07:42:17;98671.78;;;8.57;67.00
16544;BME280;8384;47.996;7.786;2023-04-07T07:44:43;98665.75;;;9.16;65.07
16544;BME280;8384;47.996;7.786;2023-04-07T07:47:08;98667.66;;;8.93;66.48
16544;BME280;8384;47.996;7.786;2023-04-07T07:49:33;98673.09;;;8.71;67.27
16544;BME280;8384;47.996;7.786;2023-04-07T07:51:59;98674.00;;;8.43;68.89
16544;BME280;8384;47.996;7.786;2023-04-07T07:54:25;98678.56;;;8.54;68.68
16544;BME280;8384;47.996;7.786;2023-04-07T07:56:50;98638.59;;;8.25;69.66
16544;BME280;8384;47.996;7.786;2023-04-07T07:59:16;98659.31;;;8.09;70.86
16544;BME280;8384;47.996;7.786;2023-04-07T08:01:41;98674.34;;;8.46;70.46
16544;BME280;8384;47.996;7.786;2023-04-07T08:04:08;98602.00;;;8.16;69.70
16544;BME280;8384;47.996;7.786;2023-04-07T08:06:33;98675.66;;;8.44;70.71
16544;BME280;8384;47.996;7.786;2023-04-07T08:08:58;98691.63;;;8.74;69.85
16544;BME280;8384;47.996;7.786;2023-04-07T08:11:24;98695.41;;;8.90;69.60
16544;BME280;8384;47.996;7.786;2023-04-07T08:13:49;98720.63;;;9.20;69.20
16544;BME280;8384;47.996;7.786;2023-04-07T08:16:14;98700.66;;;8.75;70.86
16544;BME280;8384;47.996;7.786;2023-04-07T08:18:40;98712.19;;;8.14;73.41
16544;BME280;8384;47.996;7.786;2023-04-07T08:21:05;98714.19;;;8.01;74.37
16544;BME280;8384;47.996;7.786;2023-04-07T08:23:31;98707.47;;;7.92;76.13
16544;BME280;8384;47.996;7.786;2023-04-07T08:25:56;98713.06;;;7.85;76.81
16544;BME280;8384;47.996;7.786;2023-04-07T08:28:24;98718.13;;;7.93;77.55
16544;BME280;8384;47.996;7.786;2023-04-07T08:30:50;98707.91;;;7.72;78.34
16544;BME280;8384;47.996;7.786;2023-04-07T08:33:15;98711.47;;;7.72;79.66
16544;BME280;8384;47.996;7.786;2023-04-07T08:35:40;98725.84;;;7.85;80.02
16544;BME280;8384;47.996;7.786;2023-04-07T08:38:06;98730.16;;;7.69;81.74
16544;BME280;8384;47.996;7.786;2023-04-07T08:40:33;98703.84;;;7.57;82.72
16544;BME280;8384;47.996;7.786;2023-04-07T08:42:59;98702.09;;;7.51;83.85
16544;BME280;8384;47.996;7.786;2023-04-07T08:45:25;98729.41;;;7.56;84.96
16544;BME280;8384;47.996;7.786;2023-04-07T08:47:54;98742.22;;;7.73;86.08
16544;BME280;8384;47.996;7.786;2023-04-07T08:50:21;98738.59;;;7.26;88.24
16544;BME280;8384;47.996;7.786;2023-04-07T08:52:53;98723.41;;;6.78;90.42
16544;BME280;8384;47.996;7.786;2023-04-07T08:55:19;98753.88;;;6.68;92.08
16544;BME280;8384;47.996;7.786;2023-04-07T08:57:45;98750.56;;;6.78;93.08
16544;BME280;8384;47.996;7.786;2023-04-07T09:00:11;98753.97;;;6.49;94.70
16544;BME280;8384;47.996;7.786;2023-04-07T09:02:39;98755.50;;;6.45;97.29
16544;BME280;8384;47.996;7.786;2023-04-07T09:05:06;98758.44;;;6.43;97.61
16544;BME280;8384;47.996;7.786;2023-04-07T09:07:34;98766.72;;;6.37;96.10
16544;BME280;8384;47.996;7.786;2023-04-07T09:09:59;98755.97;;;6.42;96.16
16544;BME280;8384;47.996;7.786;2023-04-07T09:12:29;98766.25;;;6.52;96.14
16544;BME280;8384;47.996;7.786;2023-04-07T09:14:54;98761.19;;;6.55;95.95
16544;BME280;8384;47.996;7.786;2023-04-07T09:17:20;98772.03;;;6.55;96.10
16544;BME280;8384;47.996;7.786;2023-04-07T09:19:46;98769.59;;;6.66;95.40
16544;BME280;8384;47.996;7.786;2023-04-07T09:22:12;98781.72;;;6.51;95.84
16544;BME280;8384;47.996;7.786;2023-04-07T09:24:39;98762.03;;;6.56;96.12
16544;BME280;8384;47.996;7.786;2023-04-07T09:27:14;98779.81;;;6.40;97.31
16544;BME280;8384;47.996;7.786;2023-04-07T09:29:42;98775.72;;;6.61;96.60
16544;BME280;8384;47.996;7.786;2023-04-07T09:32:08;98772.00;;;6.32;96.86
16544;BME280;8384;47.996;7.786;2023-04-07T09:34:35;98776.19;;;6.58;95.91
16544;BME280;8384;47.996;7.786;2023-04-07T09:37:02;98761.47;;;6.23;95.58
16544;BME280;8384;47.996;7.786;2023-04-07T09:39:27;98785.25;;;6.40;94.89
16544;BME280;8384;47.996;7.786;2023-04-07T09:41:53;98787.03;;;6.04;96.95
16544;BME280;8384;47.996;7.786;2023-04-07T09:44:20;98784.13;;;5.98;97.13
16544;BME280;8384;47.996;7.786;2023-04-07T09:46:49;98793.13;;;5.99;99.46
16544;BME280;8384;47.996;7.786;2023-04-07T09:49:15;98734.50;;;5.67;98.96
16544;BME280;8384;47.996;7.786;2023-04-07T09:52:00;98795.69;;;5.94;100.00
16544;BME280;8384;47.996;7.786;2023-04-07T09:54:41;98762.63;;;5.85;98.70
16544;BME280;8384;47.996;7.786;2023-04-07T09:57:08;98800.72;;;5.78;100.00
16544;BME280;8384;47.996;7.786;2023-04-07T09:59:35;98798.63;;;5.43;100.00
16544;BME280;8384;47.996;7.786;2023-04-07T10:02:01;98788.22;;;5.40;100.00
16544;BME280;8384;47.996;7.786;2023-04-07T10:04:27;98723.28;;;5.15;100.00
16544;BME280;8384;47.996;7.786;2023-04-07T10:06:56;98794.63;;;5.64;100.00
16544;BME280;8384;47.996;7.786;2023-04-07T10:09:24;98792.16;;;5.93;100.00
16544;BME280;8384;47.996;7.786;2023-04-07T10:11:51;98795.94;;;5.92;100.00
16544;BME280;8384;47.996;7.786;2023-04-07T10:14:18;98796.66;;;5.99;100.00
16544;BME280;8384;47.996;7.786;2023-04-07T10:16:46;98798.97;;;6.45;100.00
16544;BME280;8384;47.996;7.786;2023-04-07T10:19:12;98800.84;;;6.02;98.74
16544;BME280;8384;47.996;7.786;2023-04-07T10:21:39;98738.63;;;5.70;99.31
16544;BME280;8384;47.996;7.786;2023-04-07T10:26:52;98813.34;;;6.03;100.00
16544;BME280;8384;47.996;7.786;2023-04-07T10:29:19;98809.13;;;5.89;100.00
16544;BME280;8384;47.996;7.786;2023-04-07T10:31:46;98796.41;;;5.89;98.96
16544;BME280;8384;47.996;7.786;2023-04-07T10:34:11;98805.59;;;5.88;100.00
16544;BME280;8384;47.996;7.786;2023-04-07T10:39:35;98810.72;;;6.27;100.00
16544;BME280;8384;47.996;7.786;2023-04-07T10:42:01;98802.97;;;6.54;100.00
16544;BME280;8384;47.996;7.786;2023-04-07T10:47:05;98817.84;;;6.09;99.89
16544;BME280;8384;47.996;7.786;2023-04-07T10:49:34;98796.34;;;5.59;100.00
16544;BME280;8384;47.996;7.786;2023-04-07T10:54:40;98818.69;;;6.10;100.00
16544;BME280;8384;47.996;7.786;2023-04-07T10:57:08;98823.22;;;6.28;97.69
16544;BME280;8384;47.996;7.786;2023-04-07T10:59:39;98800.22;;;6.30;97.94
16544;BME280;8384;47.996;7.786;2023-04-07T11:04:40;98831.41;;;6.40;98.06
16544;BME280;8384;47.996;7.786;2023-04-07T11:07:09;98818.44;;;6.42;98.15
16544;BME280;8384;47.996;7.786;2023-04-07T11:09:35;98831.63;;;6.38;97.92
16544;BME280;8384;47.996;7.786;2023-04-07T11:12:01;98830.63;;;6.21;99.32
16544;BME280;8384;47.996;7.786;2023-04-07T11:14:31;98832.25;;;6.10;99.77
16544;BME280;8384;47.996;7.786;2023-04-07T11:16:58;98836.19;;;5.95;97.96
16544;BME280;8384;47.996;7.786;2023-04-07T11:19:24;98834.34;;;6.38;98.15
16544;BME280;8384;47.996;7.786;2023-04-07T11:21:49;98827.81;;;6.70;94.42
16544;BME280;8384;47.996;7.786;2023-04-07T11:24:36;98818.75;;;7.00;94.62
16544;BME280;8384;47.996;7.786;2023-04-07T11:27:05;98819.91;;;7.28;93.16
16544;BME280;8384;47.996;7.786;2023-04-07T11:29:32;98831.75;;;6.98;92.03
16544;BME280;8384;47.996;7.786;2023-04-07T11:31:59;98838.91;;;6.68;91.42
16544;BME280;8384;47.996;7.786;2023-04-07T11:34:29;98831.81;;;6.67;92.70
16544;BME280;8384;47.996;7.786;2023-04-07T11:36:54;98810.47;;;6.28;92.33
16544;BME280;8384;47.996;7.786;2023-04-07T11:39:24;98851.25;;;6.52;91.09
16544;BME280;8384;47.996;7.786;2023-04-07T11:41:55;98854.19;;;6.39;92.00
16544;BME280;8384;47.996;7.786;2023-04-07T11:44:21;98835.38;;;6.68;93.90
16544;BME280;8384;47.996;7.786;2023-04-07T11:49:18;98835.72;;;6.71;95.13
16544;BME280;8384;47.996;7.786;2023-04-07T11:51:44;98846.41;;;6.42;94.07
16544;BME280;8384;47.996;7.786;2023-04-07T11:54:11;98839.59;;;6.64;97.19
16544;BME280;8384;47.996;7.786;2023-04-07T11:56:46;98843.88;;;6.29;96.55
16544;BME280;8384;47.996;7.786;2023-04-07T11:59:22;98845.09;;;6.33;97.09
16544;BME280;8384;47.996;7.786;2023-04-07T12:01:49;98840.19;;;6.54;96.62
16544;BME280;8384;47.996;7.786;2023-04-07T12:04:15;98833.34;;;6.63;96.12
16544;BME280;8384;47.996;7.786;2023-04-07T12:06:41;98840.25;;;7.13;99.06
16544;BME280;8384;47.996;7.786;2023-04-07T12:09:30;98835.06;;;7.24;98.18
16544;BME280;8384;47.996;7.786;2023-04-07T12:11:57;98828.06;;;7.04;95.77
16544;BME280;8384;47.996;7.786;2023-04-07T12:14:23;98844.25;;;7.34;97.83
16544;BME280;8384;47.996;7.786;2023-04-07T12:16:49;98826.53;;;6.96;94.49
16544;BME280;8384;47.996;7.786;2023-04-07T12:19:14;98844.28;;;7.11;94.21
16544;BME280;8384;47.996;7.786;2023-04-07T12:21:40;98819.53;;;7.36;93.70
16544;BME280;8384;47.996;7.786;2023-04-07T12:24:05;98843.19;;;7.47;92.08
16544;BME280;8384;47.996;7.786;2023-04-07T12:26:31;98841.75;;;7.33;90.27
16544;BME280;8384;47.996;7.786;2023-04-07T12:28:56;98850.88;;;7.03;90.16
16544;BME280;8384;47.996;7.786;2023-04-07T12:31:22;98825.47;;;6.97;91.75
16544;BME280;8384;47.996;7.786;2023-04-07T12:33:48;98848.63;;;7.35;91.34
16544;BME280;8384;47.996;7.786;2023-04-07T12:36:13;98846.81;;;7.65;90.01
16544;BME280;8384;47.996;7.786;2023-04-07T12:38:38;98850.47;;;7.59;91.13
16544;BME280;8384;47.996;7.786;2023-04-07T12:41:04;98841.50;;;7.70;90.27
16544;BME280;8384;47.996;7.786;2023-04-07T12:43:30;98841.16;;;7.43;92.41
16544;BME280;8384;47.996;7.786;2023-04-07T12:45:55;98843.19;;;7.35;92.65
16544;BME280;8384;47.996;7.786;2023-04-07T12:48:21;98836.72;;;7.13;92.58
16544;BME280;8384;47.996;7.786;2023-04-07T12:50:46;98843.88;;;6.83;94.34
16544;BME280;8384;47.996;7.786;2023-04-07T12:53:11;98852.53;;;7.04;93.48
16544;BME280;8384;47.996;7.786;2023-04-07T12:55:37;98848.03;;;6.86;93.14
16544;BME280;8384;47.996;7.786;2023-04-07T12:58:02;98848.97;;;6.92;93.81
16544;BME280;8384;47.996;7.786;2023-04-07T13:00:28;98846.00;;;6.93;94.39
16544;BME280;8384;47.996;7.786;2023-04-07T13:02:54;98824.63;;;6.73;92.73
16544;BME280;8384;47.996;7.786;2023-04-07T13:05:19;98860.66;;;7.04;91.90
16544;BME280;8384;47.996;7.786;2023-04-07T13:07:44;98831.50;;;6.99;91.91
16544;BME280;8384;47.996;7.786;2023-04-07T13:10:10;98846.28;;;7.15;92.05
16544;BME280;8384;47.996;7.786;2023-04-07T13:12:35;98842.31;;;7.59;92.19
16544;BME280;8384;47.996;7.786;2023-04-07T13:15:00;98850.66;;;7.28;91.75
16544;BME280;8384;47.996;7.786;2023-04-07T13:17:26;98834.91;;;7.42;90.95
16544;BME280;8384;47.996;7.786;2023-04-07T13:19:53;98842.72;;;7.50;90.05
16544;BME280;8384;47.996;7.786;2023-04-07T13:22:18;98816.72;;;7.19;91.07
16544;BME280;8384;47.996;7.786;2023-04-07T13:24:43;98845.78;;;7.42;94.36
16544;BME280;8384;47.996;7.786;2023-04-07T13:27:08;98801.47;;;7.18;94.33
16544;BME280;8384;47.996;7.786;2023-04-07T13:29:34;98855.16;;;7.11;93.76
16544;BME280;8384;47.996;7.786;2023-04-07T13:32:09;98823.81;;;6.96;93.85
16544;BME280;8384;47.996;7.786;2023-04-07T13:34:37;98846.75;;;7.24;92.47
16544;BME280;8384;47.996;7.786;2023-04-07T13:37:03;98847.44;;;7.43;89.37
16544;BME280;8384;47.996;7.786;2023-04-07T13:39:29;98847.81;;;7.88;87.89